sensor_id;sensor_type;location;lat;lon;timestamp;pressure;altitude;pressure_sealevel;temperature;humidity
7760;BME280;3924;48.830;9.262;2022-07-29T00:02:13;98356.63;;;22.81;61.42
7760;BME280;3924;48.830;9.262;2022-07-29T00:04:40;98349.84;;;22.78;61.85
7760;BME280;3924;48.830;9.262;2022-07-29T00:07:06;98347.41;;;22.70;61.45
7760;BME280;3924;48.830;9.262;2022-07-29T00:09:33;98347.72;;;22.64;61.65
7760;BME280;3924;48.830;9.262;2022-07-29T00:12:16;98353.19;;;22.57;62.08
7760;BME280;3924;48.830;9.262;2022-07-29T00:14:52;98343.22;;;22.49;62.15
7760;BME280;3924;48.830;9.262;2022-07-29T00:17:19;98337.59;;;22.42;62.24
7760;BME280;3924;48.830;9.262;2022-07-29T00:19:45;98339.88;;;22.33;63.05
7760;BME280;3924;48.830;9.262;2022-07-29T00:22:11;98337.13;;;22.33;62.81
7760;BME280;3924;48.830;9.262;2022-07-29T00:24:38;98331.13;;;22.27;63.02
7760;BME280;3924;48.830;9.262;2022-07-29T00:27:04;98334.19;;;22.22;63.59
7760;BME280;3924;48.830;9.262;2022-07-29T00:29:31;98329.84;;;22.21;63.34
7760;BME280;3924;48.830;9.262;2022-07-29T00:31:59;98333.41;;;22.22;63.85
7760;BME280;3924;48.830;9.262;2022-07-29T00:34:26;98321.94;;;22.20;62.97
7760;BME280;3924;48.830;9.262;2022-07-29T00:37:11;98319.13;;;22.16;63.62
7760;BME280;3924;48.830;9.262;2022-07-29T00:39:37;98323.06;;;22.15;63.24
7760;BME280;3924;48.830;9.262;2022-07-29T00:42:04;98321.44;;;22.10;63.78
7760;BME280;3924;48.830;9.262;2022-07-29T00:44:36;98322.91;;;22.04;63.63
7760;BME280;3924;48.830;9.262;2022-07-29T00:47:02;98327.59;;;22.00;64.22
7760;BME280;3924;48.830;9.262;2022-07-29T00:49:29;98316.59;;;22.04;63.83
7760;BME280;3924;48.830;9.262;2022-07-29T00:51:56;98326.09;;;22.06;63.66
7760;BME280;3924;48.830;9.262;2022-07-29T00:54:23;98325.81;;;22.11;63.93
7760;BME280;3924;48.830;9.262;2022-07-29T00:56:49;98329.03;;;22.17;64.22
7760;BME280;3924;48.830;9.262;2022-07-29T00:59:16;98320.84;;;22.24;63.82
7760;BME280;3924;48.830;9.262;2022-07-29T01:01:42;98323.69;;;22.31;63.83
7760;BME280;3924;48.830;9.262;2022-07-29T01:04:09;98324.19;;;22.41;64.15
7760;BME280;3924;48.830;9.262;2022-07-29T01:06:35;98317.09;;;22.43;63.85
7760;BME280;3924;48.830;9.262;2022-07-29T01:09:02;98315.50;;;22.42;63.97
7760;BME280;3924;48.830;9.262;2022-07-29T01:11:29;98309.97;;;22.42;64.39
7760;BME280;3924;48.830;9.262;2022-07-29T01:13:56;98308.31;;;22.34;63.44
7760;BME280;3924;48.830;9.262;2022-07-29T01:16:31;98309.81;;;22.28;63.91
7760;BME280;3924;48.830;9.262;2022-07-29T01:19:10;98300.28;;;22.22;64.85
7760;BME280;3924;48.830;9.262;2022-07-29T01:21:55;98304.97;;;22.18;63.98
7760;BME280;3924;48.830;9.262;2022-07-29T01:24:51;98302.63;;;22.20;64.63
7760;BME280;3924;48.830;9.262;2022-07-29T01:30:09;98313.00;;;22.30;64.84
7760;BME280;3924;48.830;9.262;2022-07-29T01:32:40;98309.44;;;22.29;65.14
7760;BME280;3924;48.830;9.262;2022-07-29T01:40:43;98302.28;;;22.25;65.58
7760;BME280;3924;48.830;9.262;2022-07-29T01:43:14;98298.31;;;22.22;65.24
7760;BME280;3924;48.830;9.262;2022-07-29T01:45:47;98297.41;;;22.15;64.96
7760;BME280;3924;48.830;9.262;2022-07-29T01:48:21;98300.81;;;22.04;65.66
7760;BME280;3924;48.830;9.262;2022-07-29T01:51:19;98309.84;;;22.01;65.99
7760;BME280;3924;48.830;9.262;2022-07-29T01:54:04;98306.19;;;21.94;65.72
7760;BME280;3924;48.830;9.262;2022-07-29T01:56:33;98298.19;;;21.85;66.03
7760;BME280;3924;48.830;9.262;2022-07-29T01:59:03;98308.81;;;21.83;65.58
7760;BME280;3924;48.830;9.262;2022-07-29T02:01:32;98305.16;;;21.75;66.06
7760;BME280;3924;48.830;9.262;2022-07-29T02:04:02;98309.84;;;21.71;66.25
7760;BME280;3924;48.830;9.262;2022-07-29T02:06:31;98299.13;;;21.66;66.99
7760;BME280;3924;48.830;9.262;2022-07-29T02:08:58;98289.66;;;21.67;66.49
7760;BME280;3924;48.830;9.262;2022-07-29T02:11:26;98291.63;;;21.67;66.26
7760;BME280;3924;48.830;9.262;2022-07-29T02:13:54;98288.06;;;21.66;67.57
7760;BME280;3924;48.830;9.262;2022-07-29T02:16:22;98287.69;;;21.68;67.42
7760;BME280;3924;48.830;9.262;2022-07-29T02:18:52;98294.00;;;21.68;66.27
7760;BME280;3924;48.830;9.262;2022-07-29T02:21:23;98289.25;;;21.65;66.57
7760;BME280;3924;48.830;9.262;2022-07-29T02:23:52;98286.06;;;21.63;66.91
7760;BME280;3924;48.830;9.262;2022-07-29T02:26:23;98280.09;;;21.61;66.74
7760;BME280;3924;48.830;9.262;2022-07-29T02:28:53;98281.25;;;21.56;67.25
7760;BME280;3924;48.830;9.262;2022-07-29T02:31:23;98285.53;;;21.54;68.02
7760;BME280;3924;48.830;9.262;2022-07-29T02:33:51;98289.75;;;21.48;66.60
7760;BME280;3924;48.830;9.262;2022-07-29T02:36:21;98288.06;;;21.40;68.17
7760;BME280;3924;48.830;9.262;2022-07-29T02:38:49;98282.63;;;21.43;67.97
7760;BME280;3924;48.830;9.262;2022-07-29T02:41:30;98276.34;;;21.46;67.11
7760;BME280;3924;48.830;9.262;2022-07-29T02:44:06;98284.63;;;21.46;67.28
7760;BME280;3924;48.830;9.262;2022-07-29T02:46:36;98292.91;;;21.46;66.85
7760;BME280;3924;48.830;9.262;2022-07-29T02:52:12;98287.28;;;21.39;68.03
7760;BME280;3924;48.830;9.262;2022-07-29T02:54:46;98293.84;;;21.31;67.44
7760;BME280;3924;48.830;9.262;2022-07-29T02:57:22;98290.53;;;21.22;68.00
7760;BME280;3924;48.830;9.262;2022-07-29T02:59:58;98290.47;;;21.18;67.95
7760;BME280;3924;48.830;9.262;2022-07-29T03:02:26;98291.72;;;20.98;68.77
7760;BME280;3924;48.830;9.262;2022-07-29T03:04:55;98293.41;;;20.83;69.54
7760;BME280;3924;48.830;9.262;2022-07-29T03:07:23;98301.50;;;20.95;69.61
7760;BME280;3924;48.830;9.262;2022-07-29T03:09:51;98300.78;;;20.98;68.57
7760;BME280;3924;48.830;9.262;2022-07-29T03:12:19;98295.72;;;21.00;69.45
7760;BME280;3924;48.830;9.262;2022-07-29T03:14:46;98298.88;;;21.02;69.32
7760;BME280;3924;48.830;9.262;2022-07-29T03:17:13;98296.00;;;20.95;68.65
7760;BME280;3924;48.830;9.262;2022-07-29T03:19:40;98295.25;;;20.98;68.72
7760;BME280;3924;48.830;9.262;2022-07-29T03:22:06;98297.59;;;20.96;69.70
7760;BME280;3924;48.830;9.262;2022-07-29T03:24:35;98299.19;;;20.97;68.42
7760;BME280;3924;48.830;9.262;2022-07-29T03:27:03;98288.16;;;20.97;69.42
7760;BME280;3924;48.830;9.262;2022-07-29T03:29:31;98290.91;;;20.97;68.76
7760;BME280;3924;48.830;9.262;2022-07-29T03:32:00;98288.16;;;20.97;69.06
7760;BME280;3924;48.830;9.262;2022-07-29T03:34:28;98290.91;;;20.97;69.30
7760;BME280;3924;48.830;9.262;2022-07-29T03:36:55;98287.63;;;20.88;69.68
7760;BME280;3924;48.830;9.262;2022-07-29T03:39:24;98293.53;;;20.90;70.43
7760;BME280;3924;48.830;9.262;2022-07-29T03:41:53;98290.00;;;20.90;69.43
7760;BME280;3924;48.830;9.262;2022-07-29T03:44:21;98296.00;;;20.95;68.99
7760;BME280;3924;48.830;9.262;2022-07-29T03:46:50;98299.59;;;20.99;69.82
7760;BME280;3924;48.830;9.262;2022-07-29T03:49:19;98298.81;;;20.99;69.75
7760;BME280;3924;48.830;9.262;2022-07-29T03:51:46;98298.69;;;20.92;69.30
7760;BME280;3924;48.830;9.262;2022-07-29T03:54:13;98306.22;;;20.95;69.35
7760;BME280;3924;48.830;9.262;2022-07-29T03:56:43;98302.34;;;20.99;69.58
7760;BME280;3924;48.830;9.262;2022-07-29T03:59:16;98305.19;;;21.03;69.94
7760;BME280;3924;48.830;9.262;2022-07-29T04:01:44;98307.16;;;21.02;69.51
7760;BME280;3924;48.830;9.262;2022-07-29T04:04:11;98314.13;;;20.96;69.55
7760;BME280;3924;48.830;9.262;2022-07-29T04:06:40;98311.38;;;20.96;70.54
7760;BME280;3924;48.830;9.262;2022-07-29T04:09:07;98304.69;;;20.97;70.27
7760;BME280;3924;48.830;9.262;2022-07-29T04:11:36;98299.84;;;20.91;69.08
7760;BME280;3924;48.830;9.262;2022-07-29T04:14:23;98307.06;;;20.76;69.56
7760;BME280;3924;48.830;9.262;2022-07-29T04:16:50;98302.72;;;20.75;70.14
7760;BME280;3924;48.830;9.262;2022-07-29T04:19:16;98305.97;;;20.81;70.14
7760;BME280;3924;48.830;9.262;2022-07-29T04:21:43;98308.41;;;20.86;70.83
7760;BME280;3924;48.830;9.262;2022-07-29T04:24:11;98314.81;;;20.90;69.51
7760;BME280;3924;48.830;9.262;2022-07-29T04:26:38;98313.59;;;20.87;69.91
7760;BME280;3924;48.830;9.262;2022-07-29T04:29:04;98324.53;;;20.84;70.41
7760;BME280;3924;48.830;9.262;2022-07-29T04:31:31;98319.38;;;20.82;70.65
7760;BME280;3924;48.830;9.262;2022-07-29T04:33:57;98317.66;;;20.74;70.52
7760;BME280;3924;48.830;9.262;2022-07-29T04:36:24;98319.50;;;20.66;70.75
7760;BME280;3924;48.830;9.262;2022-07-29T04:38:54;98315.06;;;20.62;71.23
7760;BME280;3924;48.830;9.262;2022-07-29T04:41:21;98318.13;;;20.57;71.55
7760;BME280;3924;48.830;9.262;2022-07-29T04:43:48;98321.47;;;20.66;70.90
7760;BME280;3924;48.830;9.262;2022-07-29T04:46:15;98327.09;;;20.73;70.15
7760;BME280;3924;48.830;9.262;2022-07-29T04:48:41;98311.41;;;20.77;70.42
7760;BME280;3924;48.830;9.262;2022-07-29T04:51:08;98319.94;;;20.68;71.01
7760;BME280;3924;48.830;9.262;2022-07-29T04:53:34;98314.41;;;20.68;70.75
7760;BME280;3924;48.830;9.262;2022-07-29T04:56:01;98321.59;;;20.73;71.25
7760;BME280;3924;48.830;9.262;2022-07-29T04:58:28;98311.66;;;20.68;70.75
7760;BME280;3924;48.830;9.262;2022-07-29T05:00:54;98315.34;;;20.76;71.59
7760;BME280;3924;48.830;9.262;2022-07-29T05:03:21;98307.63;;;20.85;71.03
7760;BME280;3924;48.830;9.262;2022-07-29T05:05:47;98323.50;;;20.92;71.18
7760;BME280;3924;48.830;9.262;2022-07-29T05:08:14;98333.13;;;21.01;70.55
7760;BME280;3924;48.830;9.262;2022-07-29T05:10:40;98319.47;;;21.09;69.71
7760;BME280;3924;48.830;9.262;2022-07-29T05:13:07;98323.69;;;21.02;70.74
7760;BME280;3924;48.830;9.262;2022-07-29T05:15:34;98316.59;;;21.01;70.35
7760;BME280;3924;48.830;9.262;2022-07-29T05:18:02;98324.34;;;21.19;71.15
7760;BME280;3924;48.830;9.262;2022-07-29T05:20:29;98314.75;;;21.32;70.40
7760;BME280;3924;48.830;9.262;2022-07-29T05:22:57;98329.13;;;21.45;70.30
7760;BME280;3924;48.830;9.262;2022-07-29T05:25:25;98321.50;;;21.61;68.97
7760;BME280;3924;48.830;9.262;2022-07-29T05:28:10;98317.63;;;21.66;69.85
7760;BME280;3924;48.830;9.262;2022-07-29T05:30:37;98320.69;;;21.61;69.41
7760;BME280;3924;48.830;9.262;2022-07-29T05:33:03;98323.81;;;21.55;69.22
7760;BME280;3924;48.830;9.262;2022-07-29T05:35:30;98320.38;;;21.39;69.73
7760;BME280;3924;48.830;9.262;2022-07-29T05:37:56;98317.69;;;21.43;70.14
7760;BME280;3924;48.830;9.262;2022-07-29T05:40:23;98319.91;;;21.60;69.50
7760;BME280;3924;48.830;9.262;2022-07-29T05:42:49;98322.97;;;21.81;69.11
7760;BME280;3924;48.830;9.262;2022-07-29T05:45:16;98329.06;;;21.94;69.04
7760;BME280;3924;48.830;9.262;2022-07-29T05:47:42;98329.59;;;22.03;69.11
7760;BME280;3924;48.830;9.262;2022-07-29T05:50:09;98328.28;;;22.20;68.56
7760;BME280;3924;48.830;9.262;2022-07-29T05:52:35;98335.94;;;22.34;68.39
7760;BME280;3924;48.830;9.262;2022-07-29T05:55:02;98329.41;;;22.49;67.75
7760;BME280;3924;48.830;9.262;2022-07-29T05:57:30;98337.38;;;22.54;68.11
7760;BME280;3924;48.830;9.262;2022-07-29T05:59:57;98336.19;;;22.55;67.32
7760;BME280;3924;48.830;9.262;2022-07-29T06:02:24;98340.91;;;22.51;67.35
7760;BME280;3924;48.830;9.262;2022-07-29T06:04:50;98345.34;;;22.63;67.31
7760;BME280;3924;48.830;9.262;2022-07-29T06:07:17;98337.59;;;22.76;67.03
7760;BME280;3924;48.830;9.262;2022-07-29T06:09:43;98340.59;;;22.97;66.92
7760;BME280;3924;48.830;9.262;2022-07-29T06:12:10;98344.78;;;23.21;66.00
7760;BME280;3924;48.830;9.262;2022-07-29T06:14:37;98346.84;;;23.31;66.06
7760;BME280;3924;48.830;9.262;2022-07-29T06:17:04;98347.75;;;23.46;65.49
7760;BME280;3924;48.830;9.262;2022-07-29T06:19:34;98350.22;;;23.58;65.37
7760;BME280;3924;48.830;9.262;2022-07-29T06:22:01;98348.41;;;23.77;64.21
7760;BME280;3924;48.830;9.262;2022-07-29T06:24:28;98358.81;;;23.94;63.79
7760;BME280;3924;48.830;9.262;2022-07-29T06:26:54;98353.34;;;24.08;63.77
7760;BME280;3924;48.830;9.262;2022-07-29T06:29:21;98359.75;;;24.19;63.08
7760;BME280;3924;48.830;9.262;2022-07-29T06:31:47;98352.66;;;24.25;63.20
7760;BME280;3924;48.830;9.262;2022-07-29T06:34:14;98353.16;;;24.38;62.88
7760;BME280;3924;48.830;9.262;2022-07-29T06:36:40;98364.25;;;24.45;63.17
7760;BME280;3924;48.830;9.262;2022-07-29T06:39:07;98358.75;;;24.52;62.27
7760;BME280;3924;48.830;9.262;2022-07-29T06:41:34;98363.16;;;24.64;61.57
7760;BME280;3924;48.830;9.262;2022-07-29T06:44:01;98361.53;;;24.63;61.71
7760;BME280;3924;48.830;9.262;2022-07-29T06:46:28;98354.00;;;24.60;61.70
7760;BME280;3924;48.830;9.262;2022-07-29T06:48:55;98357.19;;;24.62;61.17
7760;BME280;3924;48.830;9.262;2022-07-29T06:51:21;98359.22;;;24.79;61.44
7760;BME280;3924;48.830;9.262;2022-07-29T06:53:51;98367.94;;;24.81;61.66
7760;BME280;3924;48.830;9.262;2022-07-29T06:56:33;98361.22;;;24.97;61.25
7760;BME280;3924;48.830;9.262;2022-07-29T06:59:06;98362.03;;;24.97;60.51
7760;BME280;3924;48.830;9.262;2022-07-29T07:01:33;98358.47;;;24.97;60.86
7760;BME280;3924;48.830;9.262;2022-07-29T07:03:59;98366.41;;;25.02;60.39
7760;BME280;3924;48.830;9.262;2022-07-29T07:06:26;98367.97;;;25.03;60.57
7760;BME280;3924;48.830;9.262;2022-07-29T07:08:53;98369.59;;;25.11;60.47
7760;BME280;3924;48.830;9.262;2022-07-29T07:11:19;98374.00;;;25.19;59.75
7760;BME280;3924;48.830;9.262;2022-07-29T07:13:46;98374.81;;;25.45;59.53
7760;BME280;3924;48.830;9.262;2022-07-29T07:16:12;98370.44;;;25.58;59.31
7760;BME280;3924;48.830;9.262;2022-07-29T07:18:39;98366.47;;;25.66;58.07
7760;BME280;3924;48.830;9.262;2022-07-29T07:21:05;98372.03;;;25.70;58.66
7760;BME280;3924;48.830;9.262;2022-07-29T07:23:32;98374.03;;;25.62;59.07
7760;BME280;3924;48.830;9.262;2022-07-29T07:25:59;98374.00;;;25.51;59.28
7760;BME280;3924;48.830;9.262;2022-07-29T07:28:27;98382.72;;;25.25;60.27
7760;BME280;3924;48.830;9.262;2022-07-29T07:30:54;98377.53;;;25.09;60.15
7760;BME280;3924;48.830;9.262;2022-07-29T07:33:21;98376.00;;;25.33;59.70
7760;BME280;3924;48.830;9.262;2022-07-29T07:35:47;98385.50;;;25.50;59.14
7760;BME280;3924;48.830;9.262;2022-07-29T07:38:14;98384.34;;;25.72;58.41
7760;BME280;3924;48.830;9.262;2022-07-29T07:40:41;98389.47;;;25.59;58.43
7760;BME280;3924;48.830;9.262;2022-07-29T07:43:07;98384.72;;;25.46;58.55
7760;BME280;3924;48.830;9.262;2022-07-29T07:45:33;98384.75;;;25.60;58.30
7760;BME280;3924;48.830;9.262;2022-07-29T07:48:00;98385.13;;;25.87;57.79
7760;BME280;3924;48.830;9.262;2022-07-29T07:50:27;98390.31;;;25.88;57.61
7760;BME280;3924;48.830;9.262;2022-07-29T07:52:54;98385.50;;;25.92;57.71
7760;BME280;3924;48.830;9.262;2022-07-29T07:55:24;98378.38;;;25.91;58.04
7760;BME280;3924;48.830;9.262;2022-07-29T07:57:51;98384.31;;;26.01;58.18
7760;BME280;3924;48.830;9.262;2022-07-29T08:00:18;98380.72;;;26.18;57.46
7760;BME280;3924;48.830;9.262;2022-07-29T08:02:48;98386.25;;;26.25;57.72
7760;BME280;3924;48.830;9.262;2022-07-29T08:05:15;98376.72;;;26.30;57.11
7760;BME280;3924;48.830;9.262;2022-07-29T08:07:45;98384.25;;;26.36;57.29
7760;BME280;3924;48.830;9.262;2022-07-29T08:10:17;98385.41;;;26.39;56.88
7760;BME280;3924;48.830;9.262;2022-07-29T08:13:08;98393.34;;;26.48;56.85
7760;BME280;3924;48.830;9.262;2022-07-29T08:15:35;98386.97;;;26.54;56.15
7760;BME280;3924;48.830;9.262;2022-07-29T08:18:02;98389.31;;;26.70;55.84
7760;BME280;3924;48.830;9.262;2022-07-29T08:20:34;98388.78;;;26.93;55.55
7760;BME280;3924;48.830;9.262;2022-07-29T08:23:02;98382.81;;;26.94;56.04
7760;BME280;3924;48.830;9.262;2022-07-29T08:25:29;98386.75;;;26.97;55.66
7760;BME280;3924;48.830;9.262;2022-07-29T08:27:55;98387.56;;;27.05;55.30
7760;BME280;3924;48.830;9.262;2022-07-29T08:30:22;98382.00;;;27.05;55.42
7760;BME280;3924;48.830;9.262;2022-07-29T08:32:55;98394.72;;;26.98;54.96
7760;BME280;3924;48.830;9.262;2022-07-29T08:35:23;98391.25;;;26.69;56.00
7760;BME280;3924;48.830;9.262;2022-07-29T08:37:50;98389.41;;;26.41;56.49
7760;BME280;3924;48.830;9.262;2022-07-29T08:40:17;98387.88;;;26.12;56.62
7760;BME280;3924;48.830;9.262;2022-07-29T08:42:44;98390.28;;;25.96;57.41
7760;BME280;3924;48.830;9.262;2022-07-29T08:45:11;98387.88;;;25.94;57.48
7760;BME280;3924;48.830;9.262;2022-07-29T08:47:38;98384.69;;;26.17;57.15
7760;BME280;3924;48.830;9.262;2022-07-29T08:50:09;98390.19;;;26.49;56.49
7760;BME280;3924;48.830;9.262;2022-07-29T08:52:38;98390.16;;;26.53;56.19
7760;BME280;3924;48.830;9.262;2022-07-29T08:55:09;98388.47;;;26.77;55.60
7760;BME280;3924;48.830;9.262;2022-07-29T08:57:36;98384.88;;;26.80;55.63
7760;BME280;3924;48.830;9.262;2022-07-29T09:00:05;98383.19;;;26.96;54.67
7760;BME280;3924;48.830;9.262;2022-07-29T09:02:39;98383.63;;;26.88;54.62
7760;BME280;3924;48.830;9.262;2022-07-29T09:05:06;98378.16;;;26.73;54.59
7760;BME280;3924;48.830;9.262;2022-07-29T09:07:34;98379.72;;;26.78;54.88
7760;BME280;3924;48.830;9.262;2022-07-29T09:10:01;98389.25;;;26.81;54.96
7760;BME280;3924;48.830;9.262;2022-07-29T09:12:29;98386.03;;;26.82;54.62
7760;BME280;3924;48.830;9.262;2022-07-29T09:15:01;98384.09;;;26.79;54.65
7760;BME280;3924;48.830;9.262;2022-07-29T09:17:48;98383.53;;;27.13;53.77
7760;BME280;3924;48.830;9.262;2022-07-29T09:20:20;98388.16;;;27.34;53.43
7760;BME280;3924;48.830;9.262;2022-07-29T09:22:49;98390.47;;;27.42;52.67
7760;BME280;3924;48.830;9.262;2022-07-29T09:25:37;98386.59;;;27.29;53.24
7760;BME280;3924;48.830;9.262;2022-07-29T09:28:15;98388.56;;;27.32;52.51
7760;BME280;3924;48.830;9.262;2022-07-29T09:30:53;98389.72;;;27.38;52.51
7760;BME280;3924;48.830;9.262;2022-07-29T09:33:21;98378.16;;;27.40;52.61
7760;BME280;3924;48.830;9.262;2022-07-29T09:36:05;98384.09;;;27.45;52.57
7760;BME280;3924;48.830;9.262;2022-07-29T09:38:33;98390.72;;;27.59;51.61
7760;BME280;3924;48.830;9.262;2022-07-29T09:41:03;98384.16;;;27.38;51.78
7760;BME280;3924;48.830;9.262;2022-07-29T09:43:32;98378.13;;;27.43;51.43
7760;BME280;3924;48.830;9.262;2022-07-29T09:46:12;98374.03;;;27.59;50.81
7760;BME280;3924;48.830;9.262;2022-07-29T09:48:39;98381.19;;;27.60;51.08
7760;BME280;3924;48.830;9.262;2022-07-29T09:51:16;98370.06;;;27.60;50.44
7760;BME280;3924;48.830;9.262;2022-07-29T09:53:47;98367.47;;;27.83;49.66
7760;BME280;3924;48.830;9.262;2022-07-29T09:56:14;98366.13;;;27.98;49.43
7760;BME280;3924;48.830;9.262;2022-07-29T09:58:40;98357.16;;;28.18;49.13
7760;BME280;3924;48.830;9.262;2022-07-29T10:01:07;98353.88;;;28.26;48.77
7760;BME280;3924;48.830;9.262;2022-07-29T10:03:51;98352.34;;;28.22;48.87
7760;BME280;3924;48.830;9.262;2022-07-29T10:06:18;98364.59;;;27.94;48.85
7760;BME280;3924;48.830;9.262;2022-07-29T10:08:44;98359.88;;;27.87;49.03
7760;BME280;3924;48.830;9.262;2022-07-29T10:11:18;98356.56;;;27.99;48.62
7760;BME280;3924;48.830;9.262;2022-07-29T10:13:47;98362.41;;;27.71;48.89
7760;BME280;3924;48.830;9.262;2022-07-29T10:16:14;98369.50;;;27.79;48.92
7760;BME280;3924;48.830;9.262;2022-07-29T10:18:42;98358.91;;;27.60;49.73
7760;BME280;3924;48.830;9.262;2022-07-29T10:21:10;98354.53;;;27.59;48.71
7760;BME280;3924;48.830;9.262;2022-07-29T10:23:57;98351.75;;;27.59;49.29
7760;BME280;3924;48.830;9.262;2022-07-29T10:26:27;98360.91;;;27.59;49.19
7760;BME280;3924;48.830;9.262;2022-07-29T10:28:55;98357.03;;;27.46;49.73
7760;BME280;3924;48.830;9.262;2022-07-29T10:31:28;98353.16;;;27.33;49.68
7760;BME280;3924;48.830;9.262;2022-07-29T10:34:07;98348.50;;;27.19;49.32
7760;BME280;3924;48.830;9.262;2022-07-29T10:36:49;98350.19;;;26.95;49.53
7760;BME280;3924;48.830;9.262;2022-07-29T10:42:22;98359.91;;;26.62;50.61
7760;BME280;3924;48.830;9.262;2022-07-29T10:45:00;98356.00;;;26.49;50.22
7760;BME280;3924;48.830;9.262;2022-07-29T10:47:30;98354.84;;;26.32;50.94
7760;BME280;3924;48.830;9.262;2022-07-29T10:50:04;98345.41;;;26.15;51.50
7760;BME280;3924;48.830;9.262;2022-07-29T10:55:34;98354.16;;;25.99;51.30
7760;BME280;3924;48.830;9.262;2022-07-29T11:00:49;98353.00;;;25.89;51.75
7760;BME280;3924;48.830;9.262;2022-07-29T11:03:52;98355.78;;;25.82;51.87
7760;BME280;3924;48.830;9.262;2022-07-29T11:06:22;98365.72;;;25.76;51.75
7760;BME280;3924;48.830;9.262;2022-07-29T11:09:15;98372.03;;;25.70;52.03
7760;BME280;3924;48.830;9.262;2022-07-29T11:11:45;98368.84;;;25.64;51.64
7760;BME280;3924;48.830;9.262;2022-07-29T11:14:17;98361.72;;;25.63;52.17
7760;BME280;3924;48.830;9.262;2022-07-29T11:17:02;98352.59;;;25.62;52.40
7760;BME280;3924;48.830;9.262;2022-07-29T11:19:32;98356.97;;;25.60;52.13
7760;BME280;3924;48.830;9.262;2022-07-29T11:22:01;98368.84;;;25.50;52.35
7760;BME280;3924;48.830;9.262;2022-07-29T11:24:29;98380.75;;;25.32;53.03
7760;BME280;3924;48.830;9.262;2022-07-29T11:27:32;98396.19;;;25.12;53.84
7760;BME280;3924;48.830;9.262;2022-07-29T11:30:06;98389.75;;;24.97;54.15
7760;BME280;3924;48.830;9.262;2022-07-29T11:32:39;98390.53;;;24.91;54.30
7760;BME280;3924;48.830;9.262;2022-07-29T11:37:45;98397.53;;;24.49;56.40
7760;BME280;3924;48.830;9.262;2022-07-29T11:40:17;98400.59;;;24.29;57.07
7760;BME280;3924;48.830;9.262;2022-07-29T11:42:47;98396.91;;;24.15;57.63
7760;BME280;3924;48.830;9.262;2022-07-29T11:45:19;98394.84;;;24.01;58.69
7760;BME280;3924;48.830;9.262;2022-07-29T11:48:07;98403.50;;;23.89;59.33
7760;BME280;3924;48.830;9.262;2022-07-29T11:50:58;98401.63;;;23.59;60.41
7760;BME280;3924;48.830;9.262;2022-07-29T11:53:25;98393.94;;;23.38;60.69
7760;BME280;3924;48.830;9.262;2022-07-29T11:55:59;98390.38;;;23.38;61.11
7760;BME280;3924;48.830;9.262;2022-07-29T11:58:27;98390.06;;;23.46;60.83
7760;BME280;3924;48.830;9.262;2022-07-29T12:00:53;98369.59;;;23.58;60.96
7760;BME280;3924;48.830;9.262;2022-07-29T12:03:26;98377.66;;;23.74;60.68
7760;BME280;3924;48.830;9.262;2022-07-29T12:06:04;98373.00;;;23.85;60.57
7760;BME280;3924;48.830;9.262;2022-07-29T12:08:42;98371.09;;;23.96;60.50
7760;BME280;3924;48.830;9.262;2022-07-29T12:11:28;98369.97;;;24.05;60.45
7760;BME280;3924;48.830;9.262;2022-07-29T12:13:55;98362.13;;;24.21;60.47
7760;BME280;3924;48.830;9.262;2022-07-29T12:16:21;98367.00;;;24.42;60.10
7760;BME280;3924;48.830;9.262;2022-07-29T12:19:04;98365.91;;;24.57;59.70
7760;BME280;3924;48.830;9.262;2022-07-29T12:21:48;98374.25;;;24.64;60.01
7760;BME280;3924;48.830;9.262;2022-07-29T12:24:22;98367.91;;;24.74;59.76
7760;BME280;3924;48.830;9.262;2022-07-29T12:26:59;98371.13;;;24.91;59.61
7760;BME280;3924;48.830;9.262;2022-07-29T12:29:27;98369.22;;;25.09;59.02
7760;BME280;3924;48.830;9.262;2022-07-29T12:32:00;98368.06;;;25.35;58.37
7760;BME280;3924;48.830;9.262;2022-07-29T12:34:28;98372.81;;;25.56;58.05
7760;BME280;3924;48.830;9.262;2022-07-29T12:36:55;98368.84;;;25.39;58.39
7760;BME280;3924;48.830;9.262;2022-07-29T12:39:22;98367.66;;;25.22;58.58
7760;BME280;3924;48.830;9.262;2022-07-29T12:41:48;98370.03;;;25.06;58.82
7760;BME280;3924;48.830;9.262;2022-07-29T12:44:15;98364.78;;;24.79;59.39
7760;BME280;3924;48.830;9.262;2022-07-29T12:46:41;98367.09;;;24.63;59.37
7760;BME280;3924;48.830;9.262;2022-07-29T12:49:08;98362.94;;;24.28;59.70
7760;BME280;3924;48.830;9.262;2022-07-29T12:51:37;98367.97;;;24.09;60.44
7760;BME280;3924;48.830;9.262;2022-07-29T12:54:13;98377.41;;;23.93;60.75
7760;BME280;3924;48.830;9.262;2022-07-29T12:56:41;98373.78;;;23.82;60.16
7760;BME280;3924;48.830;9.262;2022-07-29T12:59:18;98373.00;;;23.82;60.49
7760;BME280;3924;48.830;9.262;2022-07-29T13:01:46;98375.31;;;23.80;60.29
7760;BME280;3924;48.830;9.262;2022-07-29T13:04:33;98382.00;;;23.71;61.09
7760;BME280;3924;48.830;9.262;2022-07-29T13:07:04;98383.06;;;23.60;60.97
7760;BME280;3924;48.830;9.262;2022-07-29T13:12:25;98389.25;;;23.46;61.21
7760;BME280;3924;48.830;9.262;2022-07-29T13:14:52;98397.88;;;23.37;61.09
7760;BME280;3924;48.830;9.262;2022-07-29T13:17:20;98392.34;;;23.37;61.52
7760;BME280;3924;48.830;9.262;2022-07-29T13:19:51;98390.31;;;23.31;61.43
7760;BME280;3924;48.830;9.262;2022-07-29T13:22:23;98395.44;;;23.29;60.64
7760;BME280;3924;48.830;9.262;2022-07-29T13:27:24;98403.19;;;23.12;61.46
7760;BME280;3924;48.830;9.262;2022-07-29T13:29:51;98405.53;;;23.10;62.02
7760;BME280;3924;48.830;9.262;2022-07-29T13:32:19;98412.47;;;22.93;61.67
7760;BME280;3924;48.830;9.262;2022-07-29T13:35:01;98413.78;;;22.73;62.82
7760;BME280;3924;48.830;9.262;2022-07-29T13:37:31;98415.91;;;22.53;63.83
7760;BME280;3924;48.830;9.262;2022-07-29T13:40:01;98421.34;;;22.46;64.18
7760;BME280;3924;48.830;9.262;2022-07-29T13:42:29;98414.19;;;22.42;63.86
7760;BME280;3924;48.830;9.262;2022-07-29T13:44:56;98409.03;;;22.40;64.09
7760;BME280;3924;48.830;9.262;2022-07-29T13:47:22;98397.66;;;22.45;63.81
7760;BME280;3924;48.830;9.262;2022-07-29T13:50:02;98389.41;;;22.49;63.90
7760;BME280;3924;48.830;9.262;2022-07-29T13:52:31;98371.81;;;22.64;64.41
7760;BME280;3924;48.830;9.262;2022-07-29T13:54:58;98371.94;;;22.75;64.42
7760;BME280;3924;48.830;9.262;2022-07-29T13:57:24;98367.38;;;22.86;63.62
7760;BME280;3924;48.830;9.262;2022-07-29T13:59:51;98367.84;;;22.95;63.85
7760;BME280;3924;48.830;9.262;2022-07-29T14:02:20;98361.97;;;23.00;64.74
7760;BME280;3924;48.830;9.262;2022-07-29T14:04:54;98369.16;;;23.08;64.08
7760;BME280;3924;48.830;9.262;2022-07-29T14:07:22;98367.66;;;23.14;64.08